Terminal Aerodrome Forecast
Issued by NWS Sterling, VA

Current Version | Previous Version | Graphics & Text | Print | Product List | Glossary On
Versions: 1 2 3 4 5 6 7 8 9 10 11 12 13 14 15 16 17 18 19 20 21 22 23 24 25 26 27
000
FTUS41 KLWX 050316 AAA
TAFDCA
TAF AMD
KDCA 050316Z 0503/0524 17008KT P6SM -RA OVC040
     FM050700 18005KT 5SM -RA OVC008
     FM051200 21004KT 6SM BR OVC008
     FM051500 26007KT P6SM BKN040
     FM051900 32010KT P6SM SCT040=

USA.gov is the U.S. government's official web portal to all federal, state and local government web resources and services.